sensor_id;sensor_type;location;lat;lon;timestamp;P1;durP1;ratioP1;P2;durP2;ratioP2
7213;SDS011;3648;50.614;13.830;2022-11-15T00:02:10;59.77;;;41.17;;
7213;SDS011;3648;50.614;13.830;2022-11-15T00:04:36;75.03;;;49.30;;
7213;SDS011;3648;50.614;13.830;2022-11-15T00:07:05;67.20;;;44.73;;
7213;SDS011;3648;50.614;13.830;2022-11-15T00:09:32;68.47;;;44.97;;
7213;SDS011;3648;50.614;13.830;2022-11-15T00:11:59;62.97;;;42.33;;
7213;SDS011;3648;50.614;13.830;2022-11-15T00:14:25;61.80;;;41.13;;
7213;SDS011;3648;50.614;13.830;2022-11-15T00:16:53;65.03;;;43.10;;
7213;SDS011;3648;50.614;13.830;2022-11-15T00:19:19;76.73;;;47.07;;
7213;SDS011;3648;50.614;13.830;2022-11-15T00:21:46;71.57;;;43.93;;
7213;SDS011;3648;50.614;13.830;2022-11-15T00:24:15;67.40;;;44.33;;
7213;SDS011;3648;50.614;13.830;2022-11-15T00:26:42;72.43;;;44.57;;
7213;SDS011;3648;50.614;13.830;2022-11-15T00:29:09;60.30;;;41.97;;
7213;SDS011;3648;50.614;13.830;2022-11-15T00:31:35;66.97;;;44.63;;
7213;SDS011;3648;50.614;13.830;2022-11-15T00:34:03;64.93;;;41.77;;
7213;SDS011;3648;50.614;13.830;2022-11-15T00:36:32;64.83;;;42.73;;
7213;SDS011;3648;50.614;13.830;2022-11-15T00:38:59;62.17;;;39.80;;
7213;SDS011;3648;50.614;13.830;2022-11-15T00:41:27;63.23;;;40.03;;
7213;SDS011;3648;50.614;13.830;2022-11-15T00:43:54;61.17;;;40.87;;
7213;SDS011;3648;50.614;13.830;2022-11-15T00:46:21;60.87;;;40.57;;
7213;SDS011;3648;50.614;13.830;2022-11-15T00:48:48;61.07;;;40.17;;
7213;SDS011;3648;50.614;13.830;2022-11-15T00:51:15;62.90;;;39.60;;
7213;SDS011;3648;50.614;13.830;2022-11-15T00:53:42;61.27;;;39.10;;
7213;SDS011;3648;50.614;13.830;2022-11-15T00:56:09;61.97;;;40.87;;
7213;SDS011;3648;50.614;13.830;2022-11-15T00:58:37;54.93;;;37.50;;
7213;SDS011;3648;50.614;13.830;2022-11-15T01:01:08;51.97;;;35.70;;
7213;SDS011;3648;50.614;13.830;2022-11-15T01:03:36;60.47;;;39.17;;
7213;SDS011;3648;50.614;13.830;2022-11-15T01:06:04;58.73;;;37.63;;
7213;SDS011;3648;50.614;13.830;2022-11-15T01:08:32;62.37;;;38.40;;
7213;SDS011;3648;50.614;13.830;2022-11-15T01:11:00;58.57;;;38.57;;
7213;SDS011;3648;50.614;13.830;2022-11-15T01:13:29;58.27;;;40.10;;
7213;SDS011;3648;50.614;13.830;2022-11-15T01:15:58;57.40;;;38.23;;
7213;SDS011;3648;50.614;13.830;2022-11-15T01:18:25;58.13;;;38.13;;
7213;SDS011;3648;50.614;13.830;2022-11-15T01:20:52;53.40;;;39.00;;
7213;SDS011;3648;50.614;13.830;2022-11-15T01:23:19;57.63;;;38.37;;
7213;SDS011;3648;50.614;13.830;2022-11-15T01:25:46;51.17;;;37.70;;
7213;SDS011;3648;50.614;13.830;2022-11-15T01:28:13;56.07;;;38.80;;
7213;SDS011;3648;50.614;13.830;2022-11-15T01:30:40;58.07;;;40.57;;
7213;SDS011;3648;50.614;13.830;2022-11-15T01:33:09;56.17;;;40.00;;
7213;SDS011;3648;50.614;13.830;2022-11-15T01:35:38;58.27;;;40.00;;
7213;SDS011;3648;50.614;13.830;2022-11-15T01:38:05;56.23;;;39.67;;
7213;SDS011;3648;50.614;13.830;2022-11-15T01:40:32;57.07;;;39.33;;
7213;SDS011;3648;50.614;13.830;2022-11-15T01:42:59;59.73;;;38.57;;
7213;SDS011;3648;50.614;13.830;2022-11-15T01:45:41;60.23;;;39.37;;
7213;SDS011;3648;50.614;13.830;2022-11-15T01:48:09;56.97;;;39.30;;
7213;SDS011;3648;50.614;13.830;2022-11-15T01:50:37;55.00;;;38.03;;
7213;SDS011;3648;50.614;13.830;2022-11-15T01:53:04;57.67;;;38.23;;
7213;SDS011;3648;50.614;13.830;2022-11-15T01:55:31;60.50;;;40.80;;
7213;SDS011;3648;50.614;13.830;2022-11-15T01:57:59;58.17;;;38.87;;
7213;SDS011;3648;50.614;13.830;2022-11-15T02:00:28;66.10;;;40.30;;
7213;SDS011;3648;50.614;13.830;2022-11-15T02:02:56;63.93;;;40.73;;
7213;SDS011;3648;50.614;13.830;2022-11-15T02:05:24;66.83;;;41.57;;
7213;SDS011;3648;50.614;13.830;2022-11-15T02:07:51;69.87;;;41.23;;
7213;SDS011;3648;50.614;13.830;2022-11-15T02:10:19;65.80;;;42.17;;
7213;SDS011;3648;50.614;13.830;2022-11-15T02:12:48;63.33;;;40.37;;
7213;SDS011;3648;50.614;13.830;2022-11-15T02:15:16;65.07;;;41.20;;
7213;SDS011;3648;50.614;13.830;2022-11-15T02:17:47;69.13;;;43.50;;
7213;SDS011;3648;50.614;13.830;2022-11-15T02:20:45;69.33;;;42.80;;
7213;SDS011;3648;50.614;13.830;2022-11-15T02:26:28;60.93;;;41.33;;
7213;SDS011;3648;50.614;13.830;2022-11-15T02:29:11;68.37;;;41.60;;
7213;SDS011;3648;50.614;13.830;2022-11-15T02:31:48;66.73;;;41.37;;
7213;SDS011;3648;50.614;13.830;2022-11-15T02:34:23;58.50;;;39.17;;
7213;SDS011;3648;50.614;13.830;2022-11-15T02:37:00;66.67;;;42.50;;
7213;SDS011;3648;50.614;13.830;2022-11-15T02:39:34;65.30;;;41.83;;
7213;SDS011;3648;50.614;13.830;2022-11-15T02:42:09;71.90;;;42.87;;
7213;SDS011;3648;50.614;13.830;2022-11-15T02:44:55;72.30;;;43.17;;
7213;SDS011;3648;50.614;13.830;2022-11-15T02:47:25;66.90;;;41.13;;
7213;SDS011;3648;50.614;13.830;2022-11-15T02:49:56;68.67;;;43.13;;
7213;SDS011;3648;50.614;13.830;2022-11-15T02:52:25;67.03;;;43.30;;
7213;SDS011;3648;50.614;13.830;2022-11-15T02:54:52;76.27;;;45.43;;
7213;SDS011;3648;50.614;13.830;2022-11-15T02:57:22;67.43;;;43.53;;
7213;SDS011;3648;50.614;13.830;2022-11-15T03:02:58;70.47;;;43.10;;
7213;SDS011;3648;50.614;13.830;2022-11-15T03:05:37;68.07;;;41.80;;
7213;SDS011;3648;50.614;13.830;2022-11-15T03:08:10;61.63;;;39.77;;
7213;SDS011;3648;50.614;13.830;2022-11-15T03:10:42;72.07;;;43.03;;
7213;SDS011;3648;50.614;13.830;2022-11-15T03:13:18;78.70;;;47.20;;
7213;SDS011;3648;50.614;13.830;2022-11-15T03:15:51;71.03;;;43.93;;
7213;SDS011;3648;50.614;13.830;2022-11-15T03:18:32;71.50;;;44.13;;
7213;SDS011;3648;50.614;13.830;2022-11-15T03:21:02;68.77;;;43.90;;
7213;SDS011;3648;50.614;13.830;2022-11-15T03:23:32;70.03;;;41.70;;
7213;SDS011;3648;50.614;13.830;2022-11-15T03:26:02;72.07;;;44.13;;
7213;SDS011;3648;50.614;13.830;2022-11-15T03:28:34;74.13;;;43.77;;
7213;SDS011;3648;50.614;13.830;2022-11-15T03:31:04;74.57;;;44.27;;
7213;SDS011;3648;50.614;13.830;2022-11-15T03:33:48;68.67;;;42.17;;
7213;SDS011;3648;50.614;13.830;2022-11-15T03:36:16;66.50;;;41.50;;
7213;SDS011;3648;50.614;13.830;2022-11-15T03:38:44;71.90;;;41.50;;
7213;SDS011;3648;50.614;13.830;2022-11-15T03:41:13;66.63;;;43.13;;
7213;SDS011;3648;50.614;13.830;2022-11-15T03:43:48;69.13;;;43.03;;
7213;SDS011;3648;50.614;13.830;2022-11-15T03:46:23;73.17;;;43.40;;
7213;SDS011;3648;50.614;13.830;2022-11-15T03:48:55;81.17;;;41.87;;
7213;SDS011;3648;50.614;13.830;2022-11-15T03:51:27;79.17;;;43.20;;
7213;SDS011;3648;50.614;13.830;2022-11-15T03:53:55;74.47;;;44.60;;
7213;SDS011;3648;50.614;13.830;2022-11-15T03:56:22;79.30;;;45.40;;
7213;SDS011;3648;50.614;13.830;2022-11-15T03:58:49;65.97;;;41.67;;
7213;SDS011;3648;50.614;13.830;2022-11-15T04:01:16;68.57;;;40.83;;
7213;SDS011;3648;50.614;13.830;2022-11-15T04:03:43;67.90;;;41.93;;
7213;SDS011;3648;50.614;13.830;2022-11-15T04:06:11;74.53;;;44.23;;
7213;SDS011;3648;50.614;13.830;2022-11-15T04:08:38;77.13;;;45.03;;
7213;SDS011;3648;50.614;13.830;2022-11-15T04:11:05;70.00;;;43.70;;
7213;SDS011;3648;50.614;13.830;2022-11-15T04:13:32;71.33;;;42.93;;
7213;SDS011;3648;50.614;13.830;2022-11-15T04:15:59;74.17;;;44.13;;
7213;SDS011;3648;50.614;13.830;2022-11-15T04:18:26;71.80;;;40.57;;
7213;SDS011;3648;50.614;13.830;2022-11-15T04:20:53;61.77;;;40.70;;
7213;SDS011;3648;50.614;13.830;2022-11-15T04:23:42;68.27;;;44.40;;
7213;SDS011;3648;50.614;13.830;2022-11-15T04:26:25;68.33;;;42.07;;
7213;SDS011;3648;50.614;13.830;2022-11-15T04:28:53;80.50;;;48.40;;
7213;SDS011;3648;50.614;13.830;2022-11-15T04:31:33;83.13;;;46.87;;
7213;SDS011;3648;50.614;13.830;2022-11-15T04:34:00;66.33;;;43.80;;
7213;SDS011;3648;50.614;13.830;2022-11-15T04:36:27;73.27;;;44.63;;
7213;SDS011;3648;50.614;13.830;2022-11-15T04:39:13;71.37;;;43.83;;
7213;SDS011;3648;50.614;13.830;2022-11-15T04:41:40;74.67;;;44.27;;
7213;SDS011;3648;50.614;13.830;2022-11-15T04:44:07;67.40;;;43.63;;
7213;SDS011;3648;50.614;13.830;2022-11-15T04:46:34;71.67;;;44.17;;
7213;SDS011;3648;50.614;13.830;2022-11-15T04:49:01;64.47;;;40.70;;
7213;SDS011;3648;50.614;13.830;2022-11-15T04:51:28;66.30;;;41.67;;
7213;SDS011;3648;50.614;13.830;2022-11-15T04:53:55;67.17;;;41.43;;
7213;SDS011;3648;50.614;13.830;2022-11-15T04:56:23;67.03;;;40.97;;
7213;SDS011;3648;50.614;13.830;2022-11-15T04:58:50;67.23;;;42.37;;
7213;SDS011;3648;50.614;13.830;2022-11-15T05:01:18;68.57;;;40.37;;
7213;SDS011;3648;50.614;13.830;2022-11-15T05:03:44;74.63;;;43.40;;
7213;SDS011;3648;50.614;13.830;2022-11-15T05:06:29;71.90;;;43.07;;
7213;SDS011;3648;50.614;13.830;2022-11-15T05:08:57;60.00;;;40.90;;
7213;SDS011;3648;50.614;13.830;2022-11-15T05:11:25;72.33;;;43.27;;
7213;SDS011;3648;50.614;13.830;2022-11-15T05:13:53;71.53;;;43.40;;
7213;SDS011;3648;50.614;13.830;2022-11-15T05:16:20;63.57;;;41.63;;
7213;SDS011;3648;50.614;13.830;2022-11-15T05:18:49;74.60;;;46.70;;
7213;SDS011;3648;50.614;13.830;2022-11-15T05:21:17;72.63;;;43.70;;
7213;SDS011;3648;50.614;13.830;2022-11-15T05:23:44;72.20;;;44.83;;
7213;SDS011;3648;50.614;13.830;2022-11-15T05:26:11;75.30;;;45.03;;
7213;SDS011;3648;50.614;13.830;2022-11-15T05:28:40;88.80;;;46.00;;
7213;SDS011;3648;50.614;13.830;2022-11-15T05:31:07;73.37;;;42.70;;
7213;SDS011;3648;50.614;13.830;2022-11-15T05:33:35;82.87;;;44.00;;
7213;SDS011;3648;50.614;13.830;2022-11-15T05:36:05;68.20;;;39.20;;
7213;SDS011;3648;50.614;13.830;2022-11-15T05:38:36;59.30;;;36.60;;
7213;SDS011;3648;50.614;13.830;2022-11-15T05:41:03;65.00;;;36.37;;
7213;SDS011;3648;50.614;13.830;2022-11-15T05:43:32;62.93;;;35.73;;
7213;SDS011;3648;50.614;13.830;2022-11-15T05:46:02;58.23;;;33.43;;
7213;SDS011;3648;50.614;13.830;2022-11-15T05:48:30;61.40;;;34.00;;
7213;SDS011;3648;50.614;13.830;2022-11-15T05:50:58;61.47;;;34.83;;
7213;SDS011;3648;50.614;13.830;2022-11-15T05:53:25;58.53;;;33.37;;
7213;SDS011;3648;50.614;13.830;2022-11-15T05:55:52;59.67;;;33.97;;
7213;SDS011;3648;50.614;13.830;2022-11-15T05:58:19;58.20;;;32.67;;
7213;SDS011;3648;50.614;13.830;2022-11-15T06:00:47;65.73;;;34.80;;
7213;SDS011;3648;50.614;13.830;2022-11-15T06:03:15;59.37;;;34.27;;
7213;SDS011;3648;50.614;13.830;2022-11-15T06:05:42;63.33;;;34.97;;
7213;SDS011;3648;50.614;13.830;2022-11-15T06:08:09;67.20;;;37.90;;
7213;SDS011;3648;50.614;13.830;2022-11-15T06:10:36;63.77;;;36.13;;
7213;SDS011;3648;50.614;13.830;2022-11-15T06:13:03;65.70;;;36.43;;
7213;SDS011;3648;50.614;13.830;2022-11-15T06:15:31;64.43;;;36.93;;
7213;SDS011;3648;50.614;13.830;2022-11-15T06:17:58;61.87;;;34.60;;
7213;SDS011;3648;50.614;13.830;2022-11-15T06:20:28;67.57;;;38.00;;
7213;SDS011;3648;50.614;13.830;2022-11-15T06:22:56;63.93;;;35.83;;
7213;SDS011;3648;50.614;13.830;2022-11-15T06:25:24;75.33;;;37.27;;
7213;SDS011;3648;50.614;13.830;2022-11-15T06:27:51;67.70;;;37.77;;
7213;SDS011;3648;50.614;13.830;2022-11-15T06:30:18;72.97;;;38.30;;
7213;SDS011;3648;50.614;13.830;2022-11-15T06:32:45;70.83;;;43.40;;
7213;SDS011;3648;50.614;13.830;2022-11-15T06:35:12;73.10;;;44.97;;
7213;SDS011;3648;50.614;13.830;2022-11-15T06:37:41;83.67;;;43.67;;
7213;SDS011;3648;50.614;13.830;2022-11-15T06:40:08;73.77;;;43.13;;
7213;SDS011;3648;50.614;13.830;2022-11-15T06:42:36;65.87;;;38.93;;
7213;SDS011;3648;50.614;13.830;2022-11-15T06:45:03;68.37;;;37.33;;
7213;SDS011;3648;50.614;13.830;2022-11-15T06:47:31;68.40;;;35.70;;
7213;SDS011;3648;50.614;13.830;2022-11-15T06:49:58;69.37;;;36.87;;
7213;SDS011;3648;50.614;13.830;2022-11-15T06:52:25;63.00;;;35.00;;
7213;SDS011;3648;50.614;13.830;2022-11-15T06:54:58;64.00;;;33.73;;
7213;SDS011;3648;50.614;13.830;2022-11-15T06:57:25;65.43;;;35.07;;
7213;SDS011;3648;50.614;13.830;2022-11-15T06:59:52;60.10;;;32.50;;
7213;SDS011;3648;50.614;13.830;2022-11-15T07:02:19;60.07;;;32.73;;
7213;SDS011;3648;50.614;13.830;2022-11-15T07:04:46;66.90;;;34.37;;
7213;SDS011;3648;50.614;13.830;2022-11-15T07:07:13;73.03;;;37.50;;
7213;SDS011;3648;50.614;13.830;2022-11-15T07:09:40;66.33;;;34.93;;
7213;SDS011;3648;50.614;13.830;2022-11-15T07:12:08;61.63;;;33.97;;
7213;SDS011;3648;50.614;13.830;2022-11-15T07:14:35;81.23;;;36.77;;
7213;SDS011;3648;50.614;13.830;2022-11-15T07:17:03;62.00;;;35.37;;
7213;SDS011;3648;50.614;13.830;2022-11-15T07:19:30;108.30;;;38.93;;
7213;SDS011;3648;50.614;13.830;2022-11-15T07:21:57;86.43;;;37.80;;
7213;SDS011;3648;50.614;13.830;2022-11-15T07:24:24;77.20;;;35.77;;
7213;SDS011;3648;50.614;13.830;2022-11-15T07:26:50;61.33;;;36.87;;
7213;SDS011;3648;50.614;13.830;2022-11-15T07:29:19;76.03;;;37.50;;
7213;SDS011;3648;50.614;13.830;2022-11-15T07:31:46;68.07;;;36.70;;
7213;SDS011;3648;50.614;13.830;2022-11-15T07:34:13;70.80;;;34.67;;
7213;SDS011;3648;50.614;13.830;2022-11-15T07:36:40;58.80;;;33.30;;
7213;SDS011;3648;50.614;13.830;2022-11-15T07:39:07;65.57;;;31.13;;
7213;SDS011;3648;50.614;13.830;2022-11-15T07:41:34;59.23;;;32.63;;
7213;SDS011;3648;50.614;13.830;2022-11-15T07:44:01;64.10;;;31.70;;
7213;SDS011;3648;50.614;13.830;2022-11-15T07:46:29;71.90;;;32.50;;
7213;SDS011;3648;50.614;13.830;2022-11-15T07:48:57;72.37;;;31.80;;
7213;SDS011;3648;50.614;13.830;2022-11-15T07:51:23;63.73;;;30.40;;
7213;SDS011;3648;50.614;13.830;2022-11-15T07:53:50;55.33;;;30.57;;
7213;SDS011;3648;50.614;13.830;2022-11-15T07:56:17;58.00;;;30.07;;
7213;SDS011;3648;50.614;13.830;2022-11-15T07:58:45;61.43;;;28.33;;
7213;SDS011;3648;50.614;13.830;2022-11-15T08:01:12;60.47;;;30.57;;
7213;SDS011;3648;50.614;13.830;2022-11-15T08:03:41;49.27;;;28.77;;
7213;SDS011;3648;50.614;13.830;2022-11-15T08:06:08;56.27;;;31.07;;
7213;SDS011;3648;50.614;13.830;2022-11-15T08:08:35;60.43;;;31.20;;
7213;SDS011;3648;50.614;13.830;2022-11-15T08:11:02;75.33;;;33.03;;
7213;SDS011;3648;50.614;13.830;2022-11-15T08:13:29;58.20;;;33.67;;
7213;SDS011;3648;50.614;13.830;2022-11-15T08:15:57;48.40;;;28.47;;
7213;SDS011;3648;50.614;13.830;2022-11-15T08:18:25;53.60;;;31.70;;
7213;SDS011;3648;50.614;13.830;2022-11-15T08:20:53;53.57;;;31.30;;
7213;SDS011;3648;50.614;13.830;2022-11-15T08:23:20;51.87;;;30.13;;
7213;SDS011;3648;50.614;13.830;2022-11-15T08:25:47;46.03;;;30.20;;
7213;SDS011;3648;50.614;13.830;2022-11-15T08:28:15;51.87;;;28.90;;
7213;SDS011;3648;50.614;13.830;2022-11-15T08:30:42;48.00;;;27.30;;
7213;SDS011;3648;50.614;13.830;2022-11-15T08:33:11;55.93;;;30.07;;
7213;SDS011;3648;50.614;13.830;2022-11-15T08:35:38;57.53;;;30.97;;
7213;SDS011;3648;50.614;13.830;2022-11-15T08:38:07;53.23;;;29.83;;
7213;SDS011;3648;50.614;13.830;2022-11-15T08:40:34;49.80;;;29.10;;
7213;SDS011;3648;50.614;13.830;2022-11-15T08:43:02;46.80;;;28.63;;
7213;SDS011;3648;50.614;13.830;2022-11-15T08:45:29;56.47;;;32.43;;
7213;SDS011;3648;50.614;13.830;2022-11-15T08:47:56;48.80;;;30.37;;
7213;SDS011;3648;50.614;13.830;2022-11-15T08:50:23;53.97;;;29.23;;
7213;SDS011;3648;50.614;13.830;2022-11-15T08:52:50;48.27;;;28.30;;
7213;SDS011;3648;50.614;13.830;2022-11-15T08:55:18;59.20;;;29.50;;
7213;SDS011;3648;50.614;13.830;2022-11-15T08:57:45;60.77;;;30.13;;
7213;SDS011;3648;50.614;13.830;2022-11-15T09:00:13;52.00;;;29.23;;
7213;SDS011;3648;50.614;13.830;2022-11-15T09:02:40;48.17;;;28.77;;
7213;SDS011;3648;50.614;13.830;2022-11-15T09:05:08;49.17;;;28.03;;
7213;SDS011;3648;50.614;13.830;2022-11-15T09:07:35;49.43;;;28.87;;
7213;SDS011;3648;50.614;13.830;2022-11-15T09:10:02;49.30;;;29.07;;
7213;SDS011;3648;50.614;13.830;2022-11-15T09:12:31;51.03;;;27.93;;
7213;SDS011;3648;50.614;13.830;2022-11-15T09:14:58;48.10;;;26.67;;
7213;SDS011;3648;50.614;13.830;2022-11-15T09:17:25;54.60;;;28.57;;
7213;SDS011;3648;50.614;13.830;2022-11-15T09:19:52;48.70;;;28.33;;
7213;SDS011;3648;50.614;13.830;2022-11-15T09:22:19;47.33;;;26.87;;
7213;SDS011;3648;50.614;13.830;2022-11-15T09:24:46;49.07;;;26.20;;
7213;SDS011;3648;50.614;13.830;2022-11-15T09:27:13;49.13;;;27.93;;
7213;SDS011;3648;50.614;13.830;2022-11-15T09:29:41;48.30;;;26.60;;
7213;SDS011;3648;50.614;13.830;2022-11-15T09:32:08;47.73;;;27.97;;
7213;SDS011;3648;50.614;13.830;2022-11-15T09:34:35;44.83;;;25.87;;
7213;SDS011;3648;50.614;13.830;2022-11-15T09:37:02;46.37;;;27.23;;
7213;SDS011;3648;50.614;13.830;2022-11-15T09:39:29;45.53;;;27.40;;
7213;SDS011;3648;50.614;13.830;2022-11-15T09:41:58;44.43;;;27.20;;
7213;SDS011;3648;50.614;13.830;2022-11-15T09:44:47;44.90;;;25.57;;
7213;SDS011;3648;50.614;13.830;2022-11-15T09:47:30;50.17;;;27.47;;
7213;SDS011;3648;50.614;13.830;2022-11-15T09:50:08;51.63;;;28.27;;
7213;SDS011;3648;50.614;13.830;2022-11-15T09:52:36;49.37;;;28.37;;
7213;SDS011;3648;50.614;13.830;2022-11-15T09:55:08;48.57;;;26.33;;
7213;SDS011;3648;50.614;13.830;2022-11-15T09:57:40;47.13;;;26.57;;
7213;SDS011;3648;50.614;13.830;2022-11-15T10:00:15;48.27;;;26.63;;
7213;SDS011;3648;50.614;13.830;2022-11-15T10:02:49;51.57;;;27.03;;
7213;SDS011;3648;50.614;13.830;2022-11-15T10:05:29;45.77;;;25.27;;
7213;SDS011;3648;50.614;13.830;2022-11-15T10:07:59;48.37;;;27.53;;
7213;SDS011;3648;50.614;13.830;2022-11-15T10:10:33;49.70;;;27.87;;
7213;SDS011;3648;50.614;13.830;2022-11-15T10:13:06;48.10;;;25.80;;
7213;SDS011;3648;50.614;13.830;2022-11-15T10:15:40;54.83;;;27.33;;
7213;SDS011;3648;50.614;13.830;2022-11-15T10:18:16;47.37;;;26.30;;
7213;SDS011;3648;50.614;13.830;2022-11-15T10:20:47;47.53;;;26.83;;
7213;SDS011;3648;50.614;13.830;2022-11-15T10:23:17;46.87;;;26.37;;
7213;SDS011;3648;50.614;13.830;2022-11-15T10:25:46;50.03;;;26.63;;
7213;SDS011;3648;50.614;13.830;2022-11-15T10:28:17;44.33;;;26.37;;
7213;SDS011;3648;50.614;13.830;2022-11-15T10:30:51;51.33;;;28.73;;
7213;SDS011;3648;50.614;13.830;2022-11-15T10:33:24;48.27;;;28.33;;
7213;SDS011;3648;50.614;13.830;2022-11-15T10:38:51;51.37;;;29.50;;
7213;SDS011;3648;50.614;13.830;2022-11-15T10:41:21;56.93;;;30.87;;
7213;SDS011;3648;50.614;13.830;2022-11-15T10:44:01;50.07;;;28.30;;
7213;SDS011;3648;50.614;13.830;2022-11-15T10:46:38;46.00;;;25.97;;
7213;SDS011;3648;50.614;13.830;2022-11-15T10:49:11;46.30;;;25.90;;
7213;SDS011;3648;50.614;13.830;2022-11-15T10:51:41;48.83;;;29.03;;
7213;SDS011;3648;50.614;13.830;2022-11-15T10:54:11;50.97;;;28.27;;
7213;SDS011;3648;50.614;13.830;2022-11-15T10:56:38;43.33;;;27.23;;
7213;SDS011;3648;50.614;13.830;2022-11-15T10:59:12;48.87;;;27.67;;
7213;SDS011;3648;50.614;13.830;2022-11-15T11:01:47;47.00;;;27.73;;
7213;SDS011;3648;50.614;13.830;2022-11-15T11:04:14;52.23;;;29.50;;
7213;SDS011;3648;50.614;13.830;2022-11-15T11:06:48;46.83;;;28.13;;
7213;SDS011;3648;50.614;13.830;2022-11-15T11:09:22;48.03;;;27.60;;
7213;SDS011;3648;50.614;13.830;2022-11-15T11:11:53;48.40;;;28.53;;
7213;SDS011;3648;50.614;13.830;2022-11-15T11:14:21;48.37;;;28.13;;
7213;SDS011;3648;50.614;13.830;2022-11-15T11:16:54;46.07;;;26.63;;
7213;SDS011;3648;50.614;13.830;2022-11-15T11:19:36;44.60;;;25.40;;
7213;SDS011;3648;50.614;13.830;2022-11-15T11:22:20;56.83;;;29.87;;
7213;SDS011;3648;50.614;13.830;2022-11-15T11:24:58;45.67;;;27.90;;
7213;SDS011;3648;50.614;13.830;2022-11-15T11:27:41;63.57;;;28.73;;
7213;SDS011;3648;50.614;13.830;2022-11-15T11:30:14;50.27;;;26.87;;
7213;SDS011;3648;50.614;13.830;2022-11-15T11:32:49;46.33;;;28.03;;
7213;SDS011;3648;50.614;13.830;2022-11-15T11:35:24;46.37;;;27.90;;
7213;SDS011;3648;50.614;13.830;2022-11-15T11:37:58;45.87;;;27.00;;
7213;SDS011;3648;50.614;13.830;2022-11-15T11:40:37;42.37;;;27.23;;
7213;SDS011;3648;50.614;13.830;2022-11-15T11:43:11;40.63;;;25.93;;
7213;SDS011;3648;50.614;13.830;2022-11-15T11:45:47;39.10;;;25.00;;
7213;SDS011;3648;50.614;13.830;2022-11-15T11:48:40;44.80;;;26.37;;
7213;SDS011;3648;50.614;13.830;2022-11-15T11:51:10;43.97;;;27.03;;
7213;SDS011;3648;50.614;13.830;2022-11-15T11:53:43;46.00;;;27.87;;
7213;SDS011;3648;50.614;13.830;2022-11-15T11:56:16;46.00;;;27.40;;
7213;SDS011;3648;50.614;13.830;2022-11-15T11:58:48;45.20;;;27.60;;
7213;SDS011;3648;50.614;13.830;2022-11-15T12:01:20;46.43;;;29.47;;
7213;SDS011;3648;50.614;13.830;2022-11-15T12:03:52;42.43;;;27.07;;
7213;SDS011;3648;50.614;13.830;2022-11-15T12:06:24;42.03;;;26.07;;
7213;SDS011;3648;50.614;13.830;2022-11-15T12:08:57;36.13;;;23.90;;
7213;SDS011;3648;50.614;13.830;2022-11-15T12:11:32;38.67;;;24.03;;
7213;SDS011;3648;50.614;13.830;2022-11-15T12:14:05;41.07;;;22.73;;
7213;SDS011;3648;50.614;13.830;2022-11-15T12:16:42;38.20;;;23.07;;
7213;SDS011;3648;50.614;13.830;2022-11-15T12:19:11;36.73;;;24.17;;
7213;SDS011;3648;50.614;13.830;2022-11-15T12:21:39;35.63;;;22.57;;
7213;SDS011;3648;50.614;13.830;2022-11-15T12:24:13;36.63;;;22.60;;
7213;SDS011;3648;50.614;13.830;2022-11-15T12:26:46;36.00;;;22.83;;
7213;SDS011;3648;50.614;13.830;2022-11-15T12:29:16;37.30;;;23.50;;
7213;SDS011;3648;50.614;13.830;2022-11-15T12:31:49;38.40;;;23.57;;
7213;SDS011;3648;50.614;13.830;2022-11-15T12:37:33;42.60;;;25.80;;
7213;SDS011;3648;50.614;13.830;2022-11-15T12:40:22;39.20;;;23.90;;
7213;SDS011;3648;50.614;13.830;2022-11-15T12:42:58;43.63;;;25.27;;
7213;SDS011;3648;50.614;13.830;2022-11-15T12:45:27;42.17;;;25.67;;
7213;SDS011;3648;50.614;13.830;2022-11-15T12:47:56;39.33;;;23.30;;
7213;SDS011;3648;50.614;13.830;2022-11-15T12:50:58;40.17;;;24.27;;
7213;SDS011;3648;50.614;13.830;2022-11-15T12:53:26;49.93;;;26.43;;
7213;SDS011;3648;50.614;13.830;2022-11-15T12:56:17;47.80;;;27.27;;
7213;SDS011;3648;50.614;13.830;2022-11-15T12:58:50;50.20;;;26.60;;
7213;SDS011;3648;50.614;13.830;2022-11-15T13:04:25;46.33;;;27.33;;
7213;SDS011;3648;50.614;13.830;2022-11-15T13:06:56;45.87;;;24.57;;
7213;SDS011;3648;50.614;13.830;2022-11-15T13:15:33;50.20;;;26.03;;
7213;SDS011;3648;50.614;13.830;2022-11-15T13:18:26;48.63;;;27.37;;
7213;SDS011;3648;50.614;13.830;2022-11-15T13:20:56;42.67;;;25.73;;
7213;SDS011;3648;50.614;13.830;2022-11-15T13:23:25;46.30;;;25.77;;
7213;SDS011;3648;50.614;13.830;2022-11-15T13:25:57;51.47;;;27.13;;
7213;SDS011;3648;50.614;13.830;2022-11-15T13:28:36;47.60;;;27.33;;
7213;SDS011;3648;50.614;13.830;2022-11-15T13:31:18;43.07;;;24.63;;
7213;SDS011;3648;50.614;13.830;2022-11-15T13:33:55;49.97;;;26.13;;
7213;SDS011;3648;50.614;13.830;2022-11-15T13:36:25;47.00;;;25.00;;
7213;SDS011;3648;50.614;13.830;2022-11-15T13:38:57;41.13;;;23.77;;
7213;SDS011;3648;50.614;13.830;2022-11-15T13:41:26;43.30;;;24.47;;
7213;SDS011;3648;50.614;13.830;2022-11-15T13:43:55;44.43;;;25.57;;
7213;SDS011;3648;50.614;13.830;2022-11-15T13:46:24;46.83;;;25.93;;
7213;SDS011;3648;50.614;13.830;2022-11-15T13:48:53;45.63;;;25.33;;
7213;SDS011;3648;50.614;13.830;2022-11-15T13:51:23;45.77;;;25.83;;
7213;SDS011;3648;50.614;13.830;2022-11-15T13:53:55;43.57;;;24.87;;
7213;SDS011;3648;50.614;13.830;2022-11-15T13:56:25;42.27;;;24.90;;
7213;SDS011;3648;50.614;13.830;2022-11-15T13:58:54;42.43;;;23.50;;
7213;SDS011;3648;50.614;13.830;2022-11-15T14:01:21;40.07;;;23.53;;
7213;SDS011;3648;50.614;13.830;2022-11-15T14:03:53;38.87;;;23.97;;
7213;SDS011;3648;50.614;13.830;2022-11-15T14:06:23;43.03;;;24.20;;
7213;SDS011;3648;50.614;13.830;2022-11-15T14:11:58;41.90;;;23.80;;
7213;SDS011;3648;50.614;13.830;2022-11-15T14:14:26;43.90;;;25.37;;
7213;SDS011;3648;50.614;13.830;2022-11-15T14:16:55;41.40;;;24.17;;
7213;SDS011;3648;50.614;13.830;2022-11-15T14:19:36;47.17;;;25.73;;
7213;SDS011;3648;50.614;13.830;2022-11-15T14:22:12;44.80;;;25.33;;
7213;SDS011;3648;50.614;13.830;2022-11-15T14:24:43;45.27;;;25.73;;
7213;SDS011;3648;50.614;13.830;2022-11-15T14:27:18;39.33;;;24.17;;
7213;SDS011;3648;50.614;13.830;2022-11-15T14:29:47;40.33;;;24.20;;
7213;SDS011;3648;50.614;13.830;2022-11-15T14:32:15;44.87;;;25.60;;
7213;SDS011;3648;50.614;13.830;2022-11-15T14:34:43;39.37;;;25.10;;
7213;SDS011;3648;50.614;13.830;2022-11-15T14:40:00;46.10;;;24.97;;
7213;SDS011;3648;50.614;13.830;2022-11-15T14:42:27;40.20;;;24.67;;
7213;SDS011;3648;50.614;13.830;2022-11-15T14:44:54;38.27;;;23.53;;
7213;SDS011;3648;50.614;13.830;2022-11-15T14:47:21;43.23;;;25.20;;
7213;SDS011;3648;50.614;13.830;2022-11-15T14:49:48;41.20;;;24.13;;
7213;SDS011;3648;50.614;13.830;2022-11-15T14:52:23;44.27;;;26.27;;
7213;SDS011;3648;50.614;13.830;2022-11-15T14:54:52;43.23;;;24.07;;
7213;SDS011;3648;50.614;13.830;2022-11-15T14:57:21;40.67;;;23.90;;
7213;SDS011;3648;50.614;13.830;2022-11-15T14:59:48;42.27;;;24.20;;
7213;SDS011;3648;50.614;13.830;2022-11-15T15:02:16;43.03;;;24.37;;
7213;SDS011;3648;50.614;13.830;2022-11-15T15:04:45;44.57;;;25.20;;
7213;SDS011;3648;50.614;13.830;2022-11-15T15:07:12;41.63;;;23.73;;
7213;SDS011;3648;50.614;13.830;2022-11-15T15:09:39;46.03;;;25.93;;
7213;SDS011;3648;50.614;13.830;2022-11-15T15:12:10;44.10;;;24.87;;
7213;SDS011;3648;50.614;13.830;2022-11-15T15:14:45;43.23;;;23.97;;
7213;SDS011;3648;50.614;13.830;2022-11-15T15:17:14;42.80;;;25.03;;
7213;SDS011;3648;50.614;13.830;2022-11-15T15:19:41;41.33;;;24.33;;